createdAt,value
2023-11-01T00:01:34.293Z,99355.50
2023-11-01T00:04:01.064Z,99351.97
2023-11-01T00:06:27.757Z,99349.41
2023-11-01T00:08:54.407Z,99342.44
2023-11-01T00:11:21.197Z,99350.25
2023-11-01T00:13:47.783Z,99355.50
2023-11-01T00:16:14.361Z,99352.84
2023-11-01T00:18:40.971Z,99356.31
2023-11-01T00:21:07.714Z,99352.88
2023-11-01T00:23:34.455Z,99354.59
2023-11-01T00:26:01.187Z,99361.69
2023-11-01T00:28:30.570Z,99366.09
2023-11-01T00:30:57.141Z,99360.88
2023-11-01T00:33:23.775Z,99367.88
2023-11-01T00:35:50.404Z,99362.66
2023-11-01T00:38:22.168Z,99352.31
2023-11-01T00:40:49.240Z,99354.00
2023-11-01T00:43:15.960Z,99358.41
2023-11-01T00:45:42.583Z,99351.38
2023-11-01T00:48:09.258Z,99348.81
2023-11-01T00:50:36.029Z,99348.75
2023-11-01T00:53:02.672Z,99348.75
2023-11-01T00:55:29.262Z,99355.72
2023-11-01T00:57:55.883Z,99353.06
2023-11-01T01:00:22.480Z,99360.00
2023-11-01T01:02:50.250Z,99359.06
2023-11-01T01:05:17.046Z,99353.78
2023-11-01T01:07:43.647Z,99352.09
2023-11-01T01:10:10.426Z,99360.00
2023-11-01T01:12:37.002Z,99363.56
2023-11-01T01:15:04.128Z,99366.22
2023-11-01T01:17:30.883Z,99361.09
2023-11-01T01:19:57.511Z,99367.31
2023-11-01T01:22:24.189Z,99359.47
2023-11-01T01:24:50.909Z,99360.41
2023-11-01T01:27:17.581Z,99358.63
2023-11-01T01:29:44.175Z,99352.53
2023-11-01T01:32:10.776Z,99363.03
2023-11-01T01:34:37.460Z,99362.09
2023-11-01T01:37:04.180Z,99365.56
2023-11-01T01:39:30.733Z,99362.06
2023-11-01T01:41:57.334Z,99371.72
2023-11-01T01:44:23.944Z,99363.78
2023-11-01T01:46:50.760Z,99368.19
2023-11-01T01:49:17.462Z,99370.00
2023-11-01T01:51:44.142Z,99366.47
2023-11-01T01:54:11.241Z,99364.75
2023-11-01T01:56:38.126Z,99364.81
2023-11-01T01:59:05.539Z,99368.38
2023-11-01T02:01:39.331Z,99374.50
2023-11-01T02:04:13.416Z,99373.66
2023-11-01T02:06:40.721Z,99368.38
2023-11-01T02:09:16.443Z,99371.09
2023-11-01T02:11:46.824Z,99368.50
2023-11-01T02:14:13.662Z,99362.34
2023-11-01T02:16:40.454Z,99361.53
2023-11-01T02:19:09.861Z,99362.50
2023-11-01T02:21:37.133Z,99368.56
2023-11-01T02:24:04.322Z,99366.78
2023-11-01T02:26:31.482Z,99362.38
2023-11-01T02:28:58.165Z,99367.53
2023-11-01T02:31:24.793Z,99358.81
2023-11-01T02:33:51.399Z,99370.09
2023-11-01T02:36:18.002Z,99374.47
2023-11-01T02:38:44.596Z,99371.03
2023-11-01T02:41:11.290Z,99370.00
2023-11-01T02:43:37.919Z,99368.19
2023-11-01T02:46:04.690Z,99368.13
2023-11-01T02:48:31.347Z,99366.34
2023-11-01T02:50:58.004Z,99366.34
2023-11-01T02:53:24.636Z,99368.13
2023-11-01T02:55:51.670Z,99367.31
2023-11-01T02:58:18.320Z,99371.88
2023-11-01T03:00:44.921Z,99367.47
2023-11-01T03:03:12.587Z,99377.94
2023-11-01T03:05:39.255Z,99377.13
2023-11-01T03:08:05.934Z,99385.00
2023-11-01T03:10:32.522Z,99391.13
2023-11-01T03:12:59.251Z,99383.38
2023-11-01T03:15:25.826Z,99391.25
2023-11-01T03:17:52.674Z,99397.41
2023-11-01T03:20:19.394Z,99394.84
2023-11-01T03:22:46.020Z,99402.75
2023-11-01T03:25:12.590Z,99395.78
2023-11-01T03:27:39.239Z,99405.44
2023-11-01T03:30:06.539Z,99403.69
2023-11-01T03:32:33.216Z,99399.34
2023-11-01T03:34:59.895Z,99396.81
2023-11-01T03:37:26.516Z,99406.41
2023-11-01T03:39:53.267Z,99406.47
2023-11-01T03:42:22.158Z,99411.72
2023-11-01T03:44:50.732Z,99409.09
2023-11-01T03:47:17.535Z,99408.25
2023-11-01T03:49:45.202Z,99408.34
2023-11-01T03:52:12.105Z,99403.13
2023-11-01T03:54:38.762Z,99409.34
2023-11-01T03:57:05.878Z,99406.78
2023-11-01T03:59:32.655Z,99403.41
2023-11-01T04:01:59.658Z,99414.81
2023-11-01T04:04:26.418Z,99405.16
2023-11-01T04:06:53.147Z,99409.59
2023-11-01T04:09:19.818Z,99411.47
2023-11-01T04:11:46.484Z,99408.91
2023-11-01T04:14:14.046Z,99409.88
2023-11-01T04:16:40.933Z,99416.06
2023-11-01T04:19:07.546Z,99417.94
2023-11-01T04:21:34.250Z,99415.31
2023-11-01T04:24:00.855Z,99413.59
2023-11-01T04:26:27.600Z,99420.56
2023-11-01T04:28:54.280Z,99418.84
2023-11-01T04:31:25.507Z,99413.72
2023-11-01T04:33:55.747Z,99422.50
2023-11-01T04:36:28.797Z,99426.06
2023-11-01T04:38:56.551Z,99422.59
2023-11-01T04:41:28.598Z,99430.56
2023-11-01T04:43:55.864Z,99431.59
2023-11-01T04:46:22.583Z,99425.56
2023-11-01T04:48:50.214Z,99425.66
2023-11-01T04:51:16.845Z,99424.84
2023-11-01T04:53:43.912Z,99434.50
2023-11-01T04:56:10.576Z,99436.25
2023-11-01T04:58:37.623Z,99437.19
2023-11-01T05:01:08.895Z,99434.59
2023-11-01T05:03:37.722Z,99442.56
2023-11-01T05:06:05.989Z,99441.78
2023-11-01T05:08:32.746Z,99439.22
2023-11-01T05:10:59.446Z,99440.94
2023-11-01T05:13:26.103Z,99449.72
2023-11-01T05:15:56.839Z,99450.59
2023-11-01T05:18:25.508Z,99452.44
2023-11-01T05:20:52.636Z,99457.72
2023-11-01T05:23:20.086Z,99461.25
2023-11-01T05:25:46.970Z,99468.22
2023-11-01T05:28:13.621Z,99466.59
2023-11-01T05:30:40.360Z,99472.69
2023-11-01T05:33:07.093Z,99479.63
2023-11-01T05:35:37.818Z,99482.31
2023-11-01T05:38:05.783Z,99479.78
2023-11-01T05:40:32.468Z,99485.06
2023-11-01T05:42:59.795Z,99486.81
2023-11-01T05:45:26.502Z,99494.75
2023-11-01T05:47:54.691Z,99499.16
2023-11-01T05:50:27.006Z,99505.28
2023-11-01T05:52:55.547Z,99507.09
2023-11-01T05:55:30.118Z,99510.75
2023-11-01T05:58:08.609Z,99517.84
2023-11-01T06:00:39.873Z,99530.22
2023-11-01T06:03:10.200Z,99532.06
2023-11-01T06:05:37.082Z,99533.84
2023-11-01T06:08:04.444Z,99532.13
2023-11-01T06:10:31.763Z,99530.34
2023-11-01T06:12:58.652Z,99527.72
2023-11-01T06:15:25.645Z,99535.53
2023-11-01T06:17:52.895Z,99539.84
2023-11-01T06:20:19.662Z,99534.53
2023-11-01T06:22:46.612Z,99543.25
2023-11-01T06:25:13.234Z,99540.72
2023-11-01T06:27:40.076Z,99546.94
2023-11-01T06:30:07.289Z,99546.06
2023-11-01T06:32:36.814Z,99560.06
2023-11-01T06:35:03.740Z,99552.97
2023-11-01T06:37:30.389Z,99546.06
2023-11-01T06:39:57.273Z,99548.72
2023-11-01T06:42:24.029Z,99555.75
2023-11-01T06:44:50.684Z,99555.75
2023-11-01T06:47:17.702Z,99559.19
2023-11-01T06:49:44.555Z,99553.94
2023-11-01T06:52:11.156Z,99552.22
2023-11-01T06:54:41.803Z,99559.19
2023-11-01T06:57:08.536Z,99565.31
2023-11-01T06:59:35.113Z,99566.19
2023-11-01T07:02:01.688Z,99572.34
2023-11-01T07:04:28.302Z,99562.75
2023-11-01T07:06:54.923Z,99563.75
2023-11-01T07:09:24.003Z,99579.44
2023-11-01T07:11:51.874Z,99579.44
2023-11-01T07:14:19.148Z,99569.78
2023-11-01T07:16:46.727Z,99580.28
2023-11-01T07:19:14.408Z,99575.91
2023-11-01T07:21:41.319Z,99579.34
2023-11-01T07:24:10.898Z,99585.50
2023-11-01T07:26:37.930Z,99589.91
2023-11-01T07:29:04.788Z,99587.28
2023-11-01T07:31:31.868Z,99581.13
2023-11-01T07:33:58.513Z,99574.13
2023-11-01T07:36:25.193Z,99584.59
2023-11-01T07:38:51.891Z,99588.13
2023-11-01T07:41:18.531Z,99591.59
2023-11-01T07:43:45.181Z,99590.84
2023-11-01T07:46:12.844Z,99589.09
2023-11-01T07:48:39.498Z,99598.66
2023-11-01T07:51:07.166Z,99593.41
2023-11-01T07:53:34.890Z,99599.50
2023-11-01T07:56:02.202Z,99601.25
2023-11-01T07:58:30.498Z,99606.50
2023-11-01T08:00:57.233Z,99608.28
2023-11-01T08:03:25.400Z,99610.97
2023-11-01T08:05:52.747Z,99617.91
2023-11-01T08:08:19.565Z,99617.91
2023-11-01T08:10:46.321Z,99624.84
2023-11-01T08:13:13.093Z,99620.41
2023-11-01T08:15:39.807Z,99616.97
2023-11-01T08:18:06.551Z,99619.63
2023-11-01T08:20:33.301Z,99623.16
2023-11-01T08:23:00.066Z,99620.47
2023-11-01T08:25:26.743Z,99630.81
2023-11-01T08:27:53.324Z,99627.19
2023-11-01T08:30:20.116Z,99625.28
2023-11-01T08:32:47.001Z,99631.28
2023-11-01T08:35:13.841Z,99629.44
2023-11-01T08:37:41.279Z,99626.72
2023-11-01T08:40:08.640Z,99633.69
2023-11-01T08:42:35.504Z,99634.50
2023-11-01T08:45:02.311Z,99633.59
2023-11-01T08:47:36.247Z,99634.31
2023-11-01T08:50:04.188Z,99640.31
2023-11-01T08:52:33.395Z,99643.78
2023-11-01T08:55:01.369Z,99642.84
2023-11-01T08:57:29.017Z,99643.66
2023-11-01T08:59:59.564Z,99641.84
2023-11-01T09:02:28.257Z,99640.84
2023-11-01T09:04:56.221Z,99653.88
2023-11-01T09:07:23.266Z,99648.66
2023-11-01T09:09:53.850Z,99659.22
2023-11-01T09:12:20.962Z,99663.56
2023-11-01T09:14:48.569Z,99654.94
2023-11-01T09:17:15.716Z,99663.63
2023-11-01T09:19:42.457Z,99670.56
2023-11-01T09:22:09.543Z,99669.63
2023-11-01T09:24:36.276Z,99679.13
2023-11-01T09:27:04.098Z,99676.44
2023-11-01T09:29:30.779Z,99671.13
2023-11-01T09:31:57.413Z,99679.81
2023-11-01T09:34:26.918Z,99690.25
2023-11-01T09:36:53.975Z,99692.94
2023-11-01T09:39:20.801Z,99693.91
2023-11-01T09:41:51.979Z,99688.78
2023-11-01T09:44:19.814Z,99690.66
2023-11-01T09:46:47.374Z,99687.13
2023-11-01T09:49:15.686Z,99688.88
2023-11-01T09:51:46.157Z,99685.31
2023-11-01T09:54:14.286Z,99690.50
2023-11-01T09:56:46.233Z,99697.47
2023-11-01T09:59:13.890Z,99686.03
2023-11-01T10:01:41.670Z,99679.91
2023-11-01T10:04:08.958Z,99687.88
2023-11-01T10:06:37.753Z,99692.28
2023-11-01T10:09:05.731Z,99689.72
2023-11-01T10:11:33.077Z,99695.81
2023-11-01T10:14:01.537Z,99696.69
2023-11-01T10:16:29.178Z,99699.44
2023-11-01T10:18:56.177Z,99698.53
2023-11-01T10:21:28.635Z,99697.69
2023-11-01T10:23:58.458Z,99702.06
2023-11-01T10:26:32.297Z,99704.69
2023-11-01T10:29:01.013Z,99703.84
2023-11-01T10:31:27.706Z,99705.50
2023-11-01T10:33:54.636Z,99715.13
2023-11-01T10:36:22.046Z,99709.81
2023-11-01T10:38:52.603Z,99706.38
2023-11-01T10:41:19.883Z,99710.75
2023-11-01T10:43:48.262Z,99715.19
2023-11-01T10:46:15.928Z,99714.44
2023-11-01T10:48:44.630Z,99719.78
2023-11-01T10:51:12.983Z,99716.34
2023-11-01T10:53:40.944Z,99723.22
2023-11-01T10:56:08.550Z,99730.25
2023-11-01T10:58:38.916Z,99732.81
2023-11-01T11:01:05.433Z,99736.28
2023-11-01T11:03:54.837Z,99736.34
2023-11-01T11:06:28.709Z,99739.06
2023-11-01T11:09:24.953Z,99736.56
2023-11-01T11:12:16.921Z,99743.69
2023-11-01T11:14:48.018Z,99741.19
2023-11-01T11:17:17.201Z,99737.00
2023-11-01T11:20:15.545Z,99748.44
2023-11-01T11:23:03.619Z,99746.81
2023-11-01T11:25:43.341Z,99748.59
2023-11-01T11:28:32.927Z,99749.56
2023-11-01T11:31:12.848Z,99748.66
2023-11-01T11:33:59.366Z,99740.97
2023-11-01T11:36:28.190Z,99751.50
2023-11-01T11:38:56.911Z,99746.31
2023-11-01T11:41:28.018Z,99746.38
2023-11-01T11:44:14.632Z,99749.13
2023-11-01T11:46:46.512Z,99749.28
2023-11-01T11:49:28.456Z,99757.25
2023-11-01T11:52:03.186Z,99757.34
2023-11-01T11:54:32.225Z,99759.13
2023-11-01T11:57:09.432Z,99766.19
2023-11-01T11:59:36.884Z,99764.41
2023-11-01T12:02:11.227Z,99765.25
2023-11-01T12:04:41.143Z,99770.50
2023-11-01T12:07:08.639Z,99780.94
2023-11-01T12:09:35.357Z,99780.97
2023-11-01T12:12:13.047Z,99772.22
2023-11-01T12:14:41.109Z,99787.16
2023-11-01T12:17:08.194Z,99789.84
2023-11-01T12:19:43.979Z,99795.09
2023-11-01T12:22:10.878Z,99791.69
2023-11-01T12:24:40.246Z,99783.94
2023-11-01T12:27:11.142Z,99795.41
2023-11-01T12:29:40.674Z,99799.84
2023-11-01T12:32:08.538Z,99802.47
2023-11-01T12:34:37.670Z,99799.88
2023-11-01T12:37:11.409Z,99801.59
2023-11-01T12:39:40.180Z,99810.41
2023-11-01T12:42:27.361Z,99802.59
2023-11-01T12:44:55.834Z,99802.59
2023-11-01T12:47:24.010Z,99808.81
2023-11-01T12:49:52.362Z,99809.78
2023-11-01T12:52:19.336Z,99810.72
2023-11-01T12:54:46.639Z,99819.47
2023-11-01T12:57:13.833Z,99822.09
2023-11-01T12:59:42.575Z,99820.31
2023-11-01T13:02:09.602Z,99817.69
2023-11-01T13:04:37.716Z,99814.22
2023-11-01T13:07:04.684Z,99809.06
2023-11-01T13:09:31.431Z,99818.72
2023-11-01T13:11:58.644Z,99817.84
2023-11-01T13:14:25.281Z,99820.44
2023-11-01T13:16:52.492Z,99811.72
2023-11-01T13:19:19.212Z,99824.03
2023-11-01T13:21:45.815Z,99825.91
2023-11-01T13:24:12.414Z,99821.59
2023-11-01T13:26:39.628Z,99820.69
2023-11-01T13:29:06.298Z,99818.06
2023-11-01T13:31:33.130Z,99818.09
2023-11-01T13:33:59.764Z,99826.78
2023-11-01T13:36:26.588Z,99830.28
2023-11-01T13:38:53.308Z,99824.25
2023-11-01T13:41:19.908Z,99831.19
2023-11-01T13:43:46.618Z,99832.00
2023-11-01T13:46:14.493Z,99834.63
2023-11-01T13:48:44.913Z,99844.31
2023-11-01T13:51:12.385Z,99847.84
2023-11-01T13:53:39.098Z,99853.19
2023-11-01T13:56:07.006Z,99860.28
2023-11-01T13:58:36.122Z,99865.63
2023-11-01T14:01:03.287Z,99863.13
2023-11-01T14:03:32.268Z,99863.22
2023-11-01T14:05:59.391Z,99867.66
2023-11-01T14:08:25.965Z,99867.75
2023-11-01T14:10:52.558Z,99871.28
2023-11-01T14:13:19.141Z,99876.56
2023-11-01T14:15:46.888Z,99877.56
2023-11-01T14:18:20.569Z,99875.00
2023-11-01T14:20:50.649Z,99876.78
2023-11-01T14:23:18.592Z,99879.41
2023-11-01T14:25:46.420Z,99875.03
2023-11-01T14:28:14.361Z,99880.28
2023-11-01T14:30:42.037Z,99878.50
2023-11-01T14:33:08.757Z,99876.81
2023-11-01T14:35:35.682Z,99884.66
2023-11-01T14:38:03.926Z,99882.94
2023-11-01T14:40:31.481Z,99882.97
2023-11-01T14:43:00.791Z,99899.56
2023-11-01T14:45:27.842Z,99900.53
2023-11-01T14:47:55.953Z,99894.50
2023-11-01T14:50:23.219Z,99900.72
2023-11-01T14:52:50.481Z,99903.34
2023-11-01T14:55:17.234Z,99906.88
2023-11-01T14:57:43.905Z,99906.03
2023-11-01T15:00:11.912Z,99904.34
2023-11-01T15:02:41.362Z,99912.22
2023-11-01T15:05:09.254Z,99916.66
2023-11-01T15:07:36.398Z,99902.75
2023-11-01T15:10:04.191Z,99910.63
2023-11-01T15:12:30.883Z,99908.91
2023-11-01T15:14:57.656Z,99915.84
2023-11-01T15:17:24.307Z,99913.22
2023-11-01T15:19:50.958Z,99914.06
2023-11-01T15:22:17.594Z,99917.53
2023-11-01T15:24:51.629Z,99927.13
2023-11-01T15:27:20.287Z,99918.38
2023-11-01T15:29:47.668Z,99928.84
2023-11-01T15:32:17.111Z,99938.44
2023-11-01T15:34:44.259Z,99929.78
2023-11-01T15:37:10.960Z,99943.84
2023-11-01T15:39:39.271Z,99947.31
2023-11-01T15:42:10.759Z,99949.09
2023-11-01T15:44:37.730Z,99956.09
2023-11-01T15:47:04.867Z,99957.00
2023-11-01T15:49:31.528Z,99958.78
2023-11-01T15:52:01.232Z,99957.06
2023-11-01T15:54:29.330Z,99963.19
2023-11-01T15:56:55.939Z,99962.34
2023-11-01T15:59:23.114Z,99967.59
2023-11-01T16:01:51.222Z,99971.97
2023-11-01T16:04:18.124Z,99966.78
2023-11-01T16:06:45.133Z,99969.38
2023-11-01T16:09:14.814Z,99967.66
2023-11-01T16:11:41.739Z,99972.03
2023-11-01T16:14:09.518Z,99973.78
2023-11-01T16:16:36.506Z,99981.63
2023-11-01T16:19:03.514Z,99992.09
2023-11-01T16:21:30.184Z,99986.88
2023-11-01T16:23:56.846Z,99985.97
2023-11-01T16:26:23.495Z,99996.50
2023-11-01T16:28:50.358Z,99993.84
2023-11-01T16:31:16.945Z,99992.09
2023-11-01T16:33:44.576Z,99989.47
2023-11-01T16:36:11.529Z,99995.59
2023-11-01T16:38:38.560Z,99993.91
2023-11-01T16:41:05.390Z,99993.88
2023-11-01T16:43:31.981Z,99999.97
2023-11-01T16:46:00.122Z,99997.34
2023-11-01T16:48:27.349Z,100001.69
2023-11-01T16:50:54.212Z,99996.50
2023-11-01T16:53:20.868Z,100002.59
2023-11-01T16:55:47.476Z,99999.09
2023-11-01T16:58:14.548Z,99995.63
2023-11-01T17:00:41.181Z,100007.81
2023-11-01T17:03:09.480Z,100006.94
2023-11-01T17:05:37.612Z,100013.91
2023-11-01T17:08:04.764Z,100013.91
2023-11-01T17:10:31.479Z,100022.59
2023-11-01T17:12:58.212Z,100028.69
2023-11-01T17:15:26.329Z,100029.59
2023-11-01T17:17:56.144Z,100029.63
2023-11-01T17:20:23.955Z,100029.66
2023-11-01T17:22:57.672Z,100032.25
2023-11-01T17:25:54.335Z,100036.63
2023-11-01T17:28:37.722Z,100035.78
2023-11-01T17:31:16.250Z,100046.22
2023-11-01T17:33:45.352Z,100048.84
2023-11-01T17:36:21.245Z,100054.06
2023-11-01T17:38:48.163Z,100053.16
2023-11-01T17:41:45.705Z,100051.41
2023-11-01T17:44:12.331Z,100061.00
2023-11-01T17:46:38.889Z,100059.28
2023-11-01T17:49:06.947Z,100061.00
2023-11-01T17:51:34.223Z,100067.97
2023-11-01T17:54:03.581Z,100062.75
2023-11-01T17:56:30.786Z,100058.44
2023-11-01T17:58:58.515Z,100071.53
2023-11-01T18:01:28.213Z,100061.94
2023-11-01T18:03:58.680Z,100066.31
2023-11-01T18:06:25.577Z,100071.53
2023-11-01T18:08:52.430Z,100068.09
2023-11-01T18:11:22.833Z,100064.56
2023-11-01T18:13:50.824Z,100067.22
2023-11-01T18:16:26.056Z,100063.72
2023-11-01T18:18:56.570Z,100069.81
2023-11-01T18:21:23.517Z,100086.38
2023-11-01T18:24:10.071Z,100083.75
2023-11-01T18:26:37.153Z,100087.25
2023-11-01T18:29:09.230Z,100096.84
2023-11-01T18:31:46.195Z,100104.69
2023-11-01T18:34:14.405Z,100105.53
2023-11-01T18:36:42.986Z,100102.06
2023-11-01T18:39:10.322Z,100105.53
2023-11-01T18:41:41.517Z,100109.03
2023-11-01T18:44:27.895Z,100110.75
2023-11-01T18:46:56.585Z,100116.88
2023-11-01T18:49:57.067Z,100117.78
2023-11-01T18:52:26.216Z,100112.53
2023-11-01T18:54:53.996Z,100114.28
2023-11-01T18:57:20.590Z,100113.41
2023-11-01T18:59:47.787Z,100114.28
2023-11-01T19:02:36.258Z,100108.16
2023-11-01T19:05:07.544Z,100105.56
2023-11-01T19:07:45.221Z,100111.69
2023-11-01T19:10:17.535Z,100104.72
2023-11-01T19:12:45.634Z,100109.97
2023-11-01T19:15:40.162Z,100117.81
2023-11-01T19:18:09.061Z,100118.72
2023-11-01T19:20:36.218Z,100120.47
2023-11-01T19:23:02.861Z,100128.31
2023-11-01T19:25:29.466Z,100130.91
2023-11-01T19:27:56.308Z,100143.16
2023-11-01T19:30:23.030Z,100136.16
2023-11-01T19:32:49.888Z,100136.19
2023-11-01T19:35:16.803Z,100148.41
2023-11-01T19:37:43.401Z,100153.63
2023-11-01T19:40:10.248Z,100150.13
2023-11-01T19:42:37.221Z,100151.03
2023-11-01T19:45:05.031Z,100155.38
2023-11-01T19:47:32.481Z,100158.88
2023-11-01T19:49:59.700Z,100157.16
2023-11-01T19:52:26.364Z,100162.38
2023-11-01T19:54:53.616Z,100162.38
2023-11-01T19:57:20.408Z,100162.38
2023-11-01T19:59:49.005Z,100169.34
2023-11-01T20:02:16.243Z,100179.81
2023-11-01T20:04:44.597Z,100171.09
2023-11-01T20:07:11.476Z,100162.41
2023-11-01T20:09:41.034Z,100173.75
2023-11-01T20:12:08.402Z,100172.00
2023-11-01T20:14:36.363Z,100168.53
2023-11-01T20:17:05.924Z,100174.63
2023-11-01T20:19:32.538Z,100164.19
2023-11-01T20:21:59.355Z,100164.19
2023-11-01T20:24:26.264Z,100173.78
2023-11-01T20:26:53.501Z,100180.75
2023-11-01T20:29:20.141Z,100181.63
2023-11-01T20:31:46.827Z,100183.38
2023-11-01T20:34:13.555Z,100178.16
2023-11-01T20:36:40.176Z,100183.38
2023-11-01T20:39:06.945Z,100192.97
2023-11-01T20:41:35.348Z,100188.63
2023-11-01T20:44:02.857Z,100191.25
2023-11-01T20:46:29.471Z,100198.25
2023-11-01T20:48:56.059Z,100193.94
2023-11-01T20:51:23.355Z,100196.56
2023-11-01T20:53:51.158Z,100197.41
2023-11-01T20:56:17.928Z,100201.78
2023-11-01T20:58:44.977Z,100199.16
2023-11-01T21:01:12.185Z,100198.28
2023-11-01T21:03:39.815Z,100208.72
2023-11-01T21:06:07.028Z,100203.56
2023-11-01T21:08:34.192Z,100206.16
2023-11-01T21:11:00.801Z,100204.44
2023-11-01T21:13:28.147Z,100206.16
2023-11-01T21:15:57.637Z,100215.75
2023-11-01T21:18:24.541Z,100211.41
2023-11-01T21:20:51.317Z,100213.16
2023-11-01T21:23:18.063Z,100214.91
2023-11-01T21:25:45.279Z,100212.28
2023-11-01T21:28:12.038Z,100213.16
2023-11-01T21:30:38.639Z,100207.94
2023-11-01T21:33:05.323Z,100218.34
2023-11-01T21:35:36.908Z,100225.34
2023-11-01T21:38:08.000Z,100215.78
2023-11-01T21:40:35.060Z,100204.50
2023-11-01T21:43:01.852Z,100218.44
2023-11-01T21:45:54.555Z,100209.78
2023-11-01T21:48:26.024Z,100214.13
2023-11-01T21:51:01.006Z,100218.50
2023-11-01T21:53:32.891Z,100215.03
2023-11-01T21:56:00.816Z,100217.63
2023-11-01T21:58:28.868Z,100216.72
2023-11-01T22:01:05.160Z,100214.94
2023-11-01T22:03:48.315Z,100221.94
2023-11-01T22:06:28.262Z,100223.69
2023-11-01T22:09:05.423Z,100228.00
2023-11-01T22:11:34.742Z,100233.22
2023-11-01T22:14:11.557Z,100228.00
2023-11-01T22:16:40.707Z,100237.59
2023-11-01T22:19:37.553Z,100236.75
2023-11-01T22:22:09.373Z,100246.31
2023-11-01T22:24:38.646Z,100245.47
2023-11-01T22:27:17.344Z,100247.19
2023-11-01T22:29:52.346Z,100244.59
2023-11-01T22:32:18.983Z,100255.03
2023-11-01T22:34:48.118Z,100247.19
2023-11-01T22:37:37.875Z,100241.97
2023-11-01T22:40:07.083Z,100248.09
2023-11-01T22:42:33.752Z,100251.56
2023-11-01T22:45:02.835Z,100253.31
2023-11-01T22:47:30.877Z,100255.00
2023-11-01T22:49:57.587Z,100258.53
2023-11-01T22:52:24.185Z,100253.28
2023-11-01T22:54:50.747Z,100247.19
2023-11-01T22:57:17.460Z,100258.50
2023-11-01T22:59:44.491Z,100259.34
2023-11-01T23:02:13.448Z,100257.59
2023-11-01T23:04:41.528Z,100255.84
2023-11-01T23:07:10.753Z,100255.00
2023-11-01T23:09:37.773Z,100259.34
2023-11-01T23:12:05.175Z,100260.22
2023-11-01T23:14:31.784Z,100263.72
2023-11-01T23:16:58.378Z,100272.44
2023-11-01T23:19:24.955Z,100278.50
2023-11-01T23:21:51.535Z,100269.81
2023-11-01T23:24:20.443Z,100271.53
2023-11-01T23:26:55.085Z,100275.88
2023-11-01T23:29:36.863Z,100274.16
2023-11-01T23:32:11.951Z,100262.84
2023-11-01T23:34:43.282Z,100258.50
2023-11-01T23:37:29.624Z,100264.59
2023-11-01T23:39:57.304Z,100265.47
2023-11-01T23:42:24.278Z,100267.22
2023-11-01T23:44:53.607Z,100275.06
2023-11-01T23:47:44.637Z,100262.88
2023-11-01T23:50:28.783Z,100261.13
2023-11-01T23:52:55.430Z,100275.06
2023-11-01T23:55:22.535Z,100270.72
2023-11-01T23:57:51.422Z,100268.09
